| time (UTC) | temp C | wind direction | speed KPH | gust KPH | rain 1hr cm | rain 24hr cm | rain mn cm | humidity % | barometer mb |
| 20260507162504 | 22 | 52 | 6.4 | 8.0 | 0.00 | 0.00 | 0.00 | 38 | 1009.7 |
| 20260507162004 | 22 | 77 | 8.0 | 9.7 | 0.00 | 0.00 | 0.00 | 41 | 1009.8 |
| 20260507161503 | 22 | 58 | 6.4 | 9.7 | 0.00 | 0.00 | 0.00 | 41 | 1009.4 |
| 20260507161216 | 22 | 61 | 6.4 | 9.7 | 0.00 | 0.00 | 0.00 | 40 | 1009.3 |
| 20260507160504 | 22 | 46 | 9.7 | 12.9 | 0.00 | 0.00 | 0.00 | 40 | 1009.4 |
| 20260507160217 | 22 | 58 | 9.7 | 12.9 | 0.00 | 0.00 | 0.00 | 40 | 1009.6 |
| 20260507155503 | 23 | 42 | 4.8 | 12.9 | 0.00 | 0.00 | 0.00 | 38 | 1009.4 |
| 20260507155004 | 23 | 332 | 4.8 | 8.0 | 0.00 | 0.00 | 0.00 | 40 | 1009.3 |
| 20260507154504 | 22 | 326 | 6.4 | 8.0 | 0.00 | 0.00 | 0.00 | 39 | 1009.5 |
| 20260507154003 | 23 | 324 | 4.8 | 6.4 | 0.00 | 0.00 | 0.00 | 40 | 1009.2 |
| 20260507153504 | 22 | 326 | 6.4 | 8.0 | 0.00 | 0.00 | 0.00 | 39 | 1009.6 |
| 20260507153004 | 22 | 317 | 8.0 | 9.7 | 0.00 | 0.00 | 0.00 | 36 | 1009.5 |
| 20260507152504 | 22 | 311 | 8.0 | 12.9 | 0.00 | 0.00 | 0.00 | 39 | 1009.5 |
| 20260507152003 | 22 | 330 | 9.7 | 12.9 | 0.00 | 0.00 | 0.00 | 40 | 1009.6 |
| 20260507151714 | 22 | 354 | 9.7 | 11.3 | 0.00 | 0.00 | 0.00 | 41 | 1009.7 |
| 20260507151004 | 23 | 10 | 8.0 | 12.9 | 0.00 | 0.00 | 0.00 | 41 | 1009.5 |
| 20260507150504 | 22 | 340 | 9.7 | 12.9 | 0.00 | 0.00 | 0.00 | 44 | 1009.5 |
| 20260507150003 | 22 | 306 | 9.7 | 11.3 | 0.00 | 0.00 | 0.00 | 46 | 1009.7 |
| 20260507145503 | 22 | 320 | 11.3 | 14.5 | 0.00 | 0.00 | 0.00 | 42 | 1010.0 |
| 20260507145004 | 22 | 331 | 11.3 | 14.5 | 0.00 | 0.00 | 0.00 | 41 | 1009.8 |
| 20260507144503 | 22 | 327 | 11.3 | 11.3 | 0.00 | 0.00 | 0.00 | 41 | 1009.9 |
| 20260507144003 | 22 | 310 | 11.3 | 14.5 | 0.00 | 0.00 | 0.00 | 41 | 1010.1 |
| 20260507143503 | 22 | 312 | 12.9 | 14.5 | 0.00 | 0.00 | 0.00 | 42 | 1009.8 |
| 20260507143003 | 22 | 310 | 11.3 | 14.5 | 0.00 | 0.00 | 0.00 | 41 | 1009.9 |
| 20260507142504 | 22 | 302 | 11.3 | 16.1 | 0.00 | 0.00 | 0.00 | 44 | 1009.9 |
| 20260507142004 | 22 | 308 | 11.3 | 16.1 | 0.00 | 0.00 | 0.00 | 49 | 1010.0 |
| 20260507141714 | 22 | 312 | 11.3 | 12.9 | 0.00 | 0.00 | 0.00 | 45 | 1010.1 |
| 20260507141217 | 22 | 312 | 9.7 | 9.7 | 0.00 | 0.00 | 0.00 | 46 | 1009.9 |
| 20260507140715 | 22 | 320 | 9.7 | 11.3 | 0.00 | 0.00 | 0.00 | 43 | 1009.9 |
| 20260507140004 | 22 | 347 | 8.0 | 11.3 | 0.00 | 0.00 | 0.00 | 43 | 1010.0 |
| 20260507135503 | 22 | 350 | 6.4 | 11.3 | 0.00 | 0.00 | 0.00 | 45 | 1009.8 |
| 20260507135214 | 22 | 355 | 6.4 | 9.7 | 0.00 | 0.00 | 0.00 | 46 | 1009.9 |
| 20260507134505 | 22 | 17 | 6.4 | 8.0 | 0.00 | 0.00 | 0.00 | 50 | 1009.9 |
| 20260507134004 | 22 | 37 | 6.4 | 8.0 | 0.00 | 0.00 | 0.00 | 51 | 1009.9 |
| 20260507133504 | 22 | 62 | 6.4 | 6.4 | 0.00 | 0.00 | 0.00 | 52 | 1009.9 |
| 20260507133004 | 21 | 39 | 8.0 | 11.3 | 0.00 | 0.00 | 0.00 | 54 | 1010.3 |
| 20260507132503 | 21 | 16 | 9.7 | 11.3 | 0.00 | 0.00 | 0.00 | 54 | 1010.1 |
| 20260507132004 | 21 | 12 | 8.0 | 11.3 | 0.00 | 0.00 | 0.00 | 53 | 1010.3 |
| 20260507131503 | 22 | 58 | 8.0 | 9.7 | 0.00 | 0.00 | 0.00 | 52 | 1010.2 |
| 20260507131003 | 21 | 70 | 8.0 | 9.7 | 0.00 | 0.00 | 0.00 | 53 | 1010.4 |
| 20260507130503 | 22 | 78 | 9.7 | 12.9 | 0.00 | 0.00 | 0.00 | 52 | 1010.2 |
| 20260507130006 | 22 | 112 | 6.4 | 12.9 | 0.00 | 0.00 | 0.00 | 50 | 1010.3 |
| 20260507125717 | 22 | 313 | 4.8 | 9.7 | 0.00 | 0.00 | 0.00 | 43 | 1010.4 |
| 20260507125215 | 22 | 309 | 6.4 | 14.5 | 0.00 | 0.00 | 0.00 | 37 | 1010.3 |
| 20260507124503 | 22 | 332 | 9.7 | 14.5 | 0.00 | 0.00 | 0.00 | 34 | 1010.6 |
| 20260507124004 | 22 | 357 | 9.7 | 16.1 | 0.00 | 0.00 | 0.00 | 35 | 1010.3 |
| 20260507123504 | 22 | 339 | 9.7 | 16.1 | 0.00 | 0.00 | 0.00 | 35 | 1010.5 |
| 20260507123003 | 22 | 320 | 11.3 | 16.1 | 0.00 | 0.00 | 0.00 | 37 | 1010.4 |
| 20260507122503 | 22 | 326 | 14.5 | 19.3 | 0.00 | 0.00 | 0.00 | 36 | 1010.3 |
| 20260507122004 | 22 | 324 | 16.1 | 19.3 | 0.00 | 0.00 | 0.00 | 37 | 1010.5 |
| 20260507121504 | 22 | 340 | 14.5 | 19.3 | 0.00 | 0.00 | 0.00 | 40 | 1010.3 |
| 20260507121003 | 22 | 25 | 12.9 | 19.3 | 0.00 | 0.00 | 0.00 | 40 | 1010.7 |
| 20260507120503 | 22 | 3 | 12.9 | 17.7 | 0.00 | 0.00 | 0.00 | 42 | 1010.5 |
| 20260507120004 | 22 | 323 | 17.7 | 25.7 | 0.00 | 0.00 | 0.00 | 42 | 1010.2 |
| 20260507115504 | 21 | 323 | 20.9 | 25.7 | 0.00 | 0.00 | 0.00 | 43 | 1010.4 |
| 20260507115215 | 21 | 332 | 19.3 | 25.7 | 0.00 | 0.00 | 0.00 | 43 | 1010.3 |
| 20260507114713 | 21 | 330 | 17.7 | 20.9 | 0.00 | 0.00 | 0.00 | 46 | 1010.3 |
| 20260507114216 | 21 | 324 | 19.3 | 25.7 | 0.00 | 0.00 | 0.00 | 57 | 1010.3 |
| 20260507113503 | 21 | 316 | 19.3 | 25.7 | 0.00 | 0.00 | 0.00 | 54 | 1010.2 |
| 20260507113004 | 21 | 318 | 16.1 | 20.9 | 0.00 | 0.00 | 0.00 | 53 | 1010.0 |
| 20260507112503 | 22 | 313 | 11.3 | 14.5 | 0.00 | 0.00 | 0.00 | 52 | 1010.0 |
| 20260507112003 | 22 | 316 | 11.3 | 14.5 | 0.00 | 0.00 | 0.00 | 52 | 1010.2 |
| 20260507111504 | 22 | 315 | 11.3 | 14.5 | 0.00 | 0.00 | 0.00 | 51 | 1010.3 |
| 20260507111003 | 22 | 259 | 8.0 | 14.5 | 0.00 | 0.00 | 0.00 | 51 | 1010.5 |
| 20260507110503 | 22 | 251 | 8.0 | 11.3 | 0.00 | 0.00 | 0.00 | 54 | 1010.5 |
| 20260507110004 | 22 | 271 | 8.0 | 11.3 | 0.00 | 0.00 | 0.00 | 54 | 1010.4 |
| 20260507105713 | 21 | 278 | 8.0 | 11.3 | 0.00 | 0.00 | 0.00 | 54 | 1010.6 |
| 20260507105216 | 21 | 294 | 9.7 | 12.9 | 0.00 | 0.00 | 0.00 | 54 | 1010.8 |
| 20260507104503 | 21 | 308 | 11.3 | 14.5 | 0.00 | 0.00 | 0.00 | 61 | 1010.8 |
| 20260507104004 | 21 | 300 | 12.9 | 17.7 | 0.00 | 0.00 | 0.00 | 63 | 1011.0 |
| 20260507103504 | 21 | 316 | 14.5 | 19.3 | 0.00 | 0.00 | 0.00 | 63 | 1011.2 |
| 20260507103004 | 21 | 327 | 14.5 | 24.1 | 0.00 | 0.00 | 0.00 | 62 | 1011.1 |
| 20260507102503 | 22 | 332 | 12.9 | 24.1 | 0.00 | 0.00 | 0.00 | 60 | 1011.1 |
| 20260507102214 | 22 | 336 | 12.9 | 24.1 | 0.00 | 0.00 | 0.00 | 60 | 1011.2 |
| 20260507101503 | 22 | 341 | 8.0 | 12.9 | 0.00 | 0.00 | 0.00 | 53 | 1011.0 |
| 20260507101215 | 22 | 310 | 9.7 | 12.9 | 0.00 | 0.00 | 0.00 | 57 | 1011.3 |
| 20260507100503 | 21 | 280 | 11.3 | 11.3 | 0.00 | 0.00 | 0.00 | 65 | 1010.7 |
| 20260507100004 | 21 | 298 | 11.3 | 12.9 | 0.00 | 0.00 | 0.00 | 65 | 1011.0 |
| 20260507095503 | 20 | 313 | 12.9 | 19.3 | 0.00 | 0.00 | 0.00 | 69 | 1011.0 |
| 20260507095217 | 20 | 324 | 14.5 | 20.9 | 0.00 | 0.00 | 0.00 | 70 | 1011.2 |
| 20260507094503 | 20 | 326 | 17.7 | 20.9 | 0.00 | 0.00 | 0.00 | 70 | 1011.3 |
| 20260507094004 | 20 | 324 | 19.3 | 24.1 | 0.00 | 0.00 | 0.00 | 70 | 1011.3 |
| 20260507093503 | 20 | 329 | 17.7 | 24.1 | 0.00 | 0.00 | 0.00 | 70 | 1011.1 |
| 20260507093003 | 21 | 320 | 16.1 | 17.7 | 0.00 | 0.00 | 0.00 | 68 | 1011.3 |
| 20260507092504 | 21 | 288 | 16.1 | 20.9 | 0.00 | 0.00 | 0.00 | 65 | 1011.1 |
| 20260507092003 | 21 | 279 | 12.9 | 20.9 | 0.00 | 0.00 | 0.00 | 60 | 1011.2 |
| 20260507091504 | 21 | 298 | 11.3 | 12.9 | 0.00 | 0.00 | 0.00 | 57 | 1011.4 |
| 20260507091003 | 21 | 314 | 9.7 | 12.9 | 0.00 | 0.00 | 0.00 | 56 | 1011.3 |
| 20260507090503 | 21 | 311 | 8.0 | 9.7 | 0.00 | 0.00 | 0.00 | 58 | 1011.3 |
| 20260507090004 | 21 | 314 | 9.7 | 12.9 | 0.00 | 0.00 | 0.00 | 62 | 1011.2 |
| 20260507085503 | 21 | 315 | 12.9 | 17.7 | 0.00 | 0.00 | 0.00 | 63 | 1011.1 |
| 20260507085217 | 21 | 308 | 12.9 | 17.7 | 0.00 | 0.00 | 0.00 | 64 | 1011.4 |
| 20260507084504 | 21 | 292 | 11.3 | 14.5 | 0.00 | 0.00 | 0.00 | 62 | 1011.7 |
| 20260507084004 | 21 | 306 | 11.3 | 14.5 | 0.00 | 0.00 | 0.00 | 63 | 1011.5 |
| 20260507083503 | 20 | 318 | 11.3 | 14.5 | 0.00 | 0.00 | 0.00 | 63 | 1011.6 |
| 20260507083005 | 20 | 318 | 12.9 | 14.5 | 0.00 | 0.00 | 0.00 | 66 | 1011.4 |
| 20260507082503 | 21 | 330 | 11.3 | 14.5 | 0.00 | 0.00 | 0.00 | 64 | 1011.5 |
| 20260507082215 | 21 | 338 | 11.3 | 14.5 | 0.00 | 0.00 | 0.00 | 64 | 1011.4 |
| 20260507081504 | 21 | 338 | 11.3 | 16.1 | 0.00 | 0.00 | 0.00 | 66 | 1011.5 |
| 20260507081004 | 21 | 343 | 9.7 | 16.1 | 0.00 | 0.00 | 0.00 | 65 | 1011.5 |
| 20260507080503 | 21 | 360 | 6.4 | 9.7 | 0.00 | 0.00 | 0.00 | 63 | 1011.9 |
| 20260507080005 | 21 | 336 | 8.0 | 9.7 | 0.00 | 0.00 | 0.00 | 63 | 1011.6 |
| 20260507075715 | 21 | 328 | 8.0 | 9.7 | 0.00 | 0.00 | 0.00 | 63 | 1011.8 |
| 20260507075003 | 21 | 335 | 9.7 | 9.7 | 0.00 | 0.00 | 0.00 | 64 | 1012.1 |
| 20260507074716 | 20 | 335 | 8.0 | 9.7 | 0.00 | 0.00 | 0.00 | 63 | 1012.0 |
| 20260507074003 | 20 | 306 | 6.4 | 9.7 | 0.00 | 0.00 | 0.00 | 67 | 1012.1 |
| 20260507073503 | 20 | 318 | 4.8 | 9.7 | 0.00 | 0.00 | 0.00 | 66 | 1012.1 |
| 20260507073004 | 20 | 350 | 4.8 | 6.4 | 0.00 | 0.00 | 0.00 | 68 | 1012.1 |
| 20260507072504 | 20 | 342 | 6.4 | 6.4 | 0.00 | 0.00 | 0.00 | 68 | 1012.1 |
| 20260507072006 | 20 | 333 | 4.8 | 6.4 | 0.00 | 0.00 | 0.00 | 67 | 1011.8 |
| 20260507071714 | 21 | 334 | 3.2 | 4.8 | 0.00 | 0.00 | 0.00 | 67 | 1011.7 |
| 20260507071003 | 20 | 343 | 3.2 | 4.8 | 0.00 | 0.00 | 0.00 | 66 | 1011.8 |
| 20260507070506 | 20 | 354 | 3.2 | 11.3 | 0.00 | 0.00 | 0.00 | 68 | 1012.0 |
| 20260507070217 | 20 | 51 | 4.8 | 11.3 | 0.00 | 0.00 | 0.00 | 69 | 1012.0 |
| 20260507065504 | 20 | 64 | 8.0 | 11.3 | 0.00 | 0.00 | 0.00 | 70 | 1011.8 |
| 20260507065004 | 19 | 57 | 8.0 | 9.7 | 0.00 | 0.00 | 0.00 | 71 | 1012.0 |
| 20260507064716 | 19 | 33 | 6.4 | 9.7 | 0.00 | 0.00 | 0.00 | 71 | 1011.9 |
| 20260507064003 | 19 | 66 | 6.4 | 9.7 | 0.00 | 0.00 | 0.00 | 73 | 1012.0 |
| 20260507063503 | 19 | 42 | 6.4 | 9.7 | 0.00 | 0.00 | 0.00 | 73 | 1012.0 |
| 20260507063003 | 18 | 28 | 6.4 | 9.7 | 0.00 | 0.00 | 0.00 | 73 | 1011.9 |
| 20260507062503 | 18 | 34 | 4.8 | 8.0 | 0.00 | 0.00 | 0.00 | 77 | 1011.8 |
| 20260507062004 | 18 | 327 | 3.2 | 4.8 | 0.00 | 0.00 | 0.00 | 79 | 1012.0 |
| 20260507061504 | 18 | 324 | 3.2 | 4.8 | 0.00 | 0.00 | 0.00 | 80 | 1012.1 |
| 20260507061004 | 18 | 324 | 3.2 | 4.8 | 0.00 | 0.00 | 0.00 | 81 | 1011.9 |
| 20260507060504 | 17 | 323 | 3.2 | 3.2 | 0.00 | 0.00 | 0.00 | 83 | 1012.0 |
| 20260507060004 | 17 | 326 | 1.6 | 3.2 | 0.00 | 0.00 | 0.00 | 83 | 1012.0 |
| 20260507055503 | 17 | 314 | 3.2 | 4.8 | 0.00 | 0.00 | 0.00 | 83 | 1012.0 |
| 20260507055003 | 17 | 315 | 3.2 | 4.8 | 0.00 | 0.00 | 0.00 | 83 | 1012.0 |
| 20260507054717 | 17 | 315 | 3.2 | 4.8 | 0.00 | 0.00 | 0.00 | 83 | 1011.9 |
| 20260507054215 | 17 | 315 | 3.2 | 4.8 | 0.00 | 0.00 | 0.00 | 83 | 1012.0 |
| 20260507053503 | 17 | 315 | 4.8 | 4.8 | 0.00 | 0.00 | 0.00 | 84 | 1011.7 |
| 20260507053004 | 17 | 318 | 4.8 | 4.8 | 0.00 | 0.00 | 0.00 | 84 | 1011.7 |
| 20260507052504 | 17 | 331 | 3.2 | 4.8 | 0.00 | 0.00 | 0.00 | 85 | 1011.4 |
| 20260507052003 | 17 | 330 | 3.2 | 4.8 | 0.00 | 0.00 | 0.00 | 85 | 1011.6 |
| 20260507051503 | 16 | 317 | 3.2 | 3.2 | 0.00 | 0.00 | 0.00 | 85 | 1011.8 |
| 20260507051003 | 16 | 315 | 3.2 | 3.2 | 0.00 | 0.00 | 0.00 | 85 | 1011.9 |
| 20260507050503 | 16 | 315 | 3.2 | 3.2 | 0.00 | 0.00 | 0.00 | 85 | 1011.8 |
| 20260507050003 | 16 | 315 | 3.2 | 3.2 | 0.00 | 0.00 | 0.00 | 85 | 1011.9 |
| 20260507045504 | 16 | 324 | 1.6 | 3.2 | 0.00 | 0.00 | 0.00 | 85 | 1011.9 |
| 20260507045003 | 16 | 350 | 1.6 | 3.2 | 0.00 | 0.00 | 0.00 | 85 | 1011.6 |
| 20260507044503 | 16 | 337 | 1.6 | 3.2 | 0.00 | 0.00 | 0.00 | 85 | 1011.6 |
| 20260507044003 | 16 | 315 | 1.6 | 3.2 | 0.00 | 0.00 | 0.00 | 84 | 1011.6 |
| 20260507043504 | 16 | 315 | 1.6 | 3.2 | 0.00 | 0.00 | 0.00 | 84 | 1011.8 |
| 20260507043004 | 16 | 315 | 1.6 | 3.2 | 0.00 | 0.00 | 0.00 | 84 | 1011.9 |
| 20260507042503 | 16 | 315 | 3.2 | 3.2 | 0.00 | 0.00 | 0.00 | 84 | 1011.9 |
| 20260507042213 | 16 | 315 | 3.2 | 3.2 | 0.00 | 0.00 | 0.00 | 84 | 1011.8 |
| 20260507041503 | 16 | 315 | 3.2 | 3.2 | 0.00 | 0.00 | 0.00 | 83 | 1011.8 |
| 20260507041003 | 16 | 315 | 3.2 | 3.2 | 0.00 | 0.00 | 0.00 | 83 | 1012.1 |
| 20260507040503 | 16 | 315 | 3.2 | 3.2 | 0.00 | 0.00 | 0.00 | 82 | 1011.9 |
| 20260507040214 | 16 | 315 | 3.2 | 3.2 | 0.00 | 0.00 | 0.00 | 82 | 1012.0 |
| 20260507035504 | 16 | 315 | 3.2 | 3.2 | 0.00 | 0.00 | 0.00 | 81 | 1012.2 |
| 20260507035003 | 16 | 321 | 3.2 | 3.2 | 0.00 | 0.00 | 0.00 | 81 | 1012.3 |
| 20260507034504 | 16 | 349 | 3.2 | 3.2 | 0.00 | 0.00 | 0.00 | 81 | 1012.3 |
| 20260507034003 | 16 | 337 | 4.8 | 6.4 | 0.00 | 0.00 | 0.00 | 81 | 1012.6 |
| 20260507033503 | 16 | 320 | 6.4 | 6.4 | 0.00 | 0.00 | 0.00 | 80 | 1012.8 |
| 20260507033003 | 17 | 320 | 4.8 | 6.4 | 0.00 | 0.00 | 0.00 | 81 | 1012.5 |
| 20260507032503 | 17 | 341 | 3.2 | 3.2 | 0.00 | 0.00 | 0.00 | 81 | 1012.5 |
| 20260507032213 | 16 | 342 | 3.2 | 3.2 | 0.00 | 0.00 | 0.00 | 81 | 1012.6 |
| 20260507031504 | 16 | 336 | 3.2 | 3.2 | 0.00 | 0.00 | 0.00 | 81 | 1012.4 |
| 20260507031003 | 16 | 286 | 1.6 | 3.2 | 0.00 | 0.00 | 0.00 | 82 | 1012.3 |
| 20260507030505 | 16 | 274 | 1.6 | 3.2 | 0.00 | 0.00 | 0.00 | 82 | 1012.3 |
| 20260507030003 | 16 | 312 | 1.6 | 3.2 | 0.00 | 0.00 | 0.00 | 83 | 1012.4 |
| 20260507025713 | 16 | 324 | 1.6 | 3.2 | 0.00 | 0.00 | 0.00 | 83 | 1012.4 |
| 20260507025004 | 16 | 177 | 3.2 | 4.8 | 0.00 | 0.00 | 0.00 | 83 | 1012.7 |
| 20260507024504 | 16 | 182 | 4.8 | 11.3 | 0.00 | 0.00 | 0.00 | 84 | 1012.7 |
| 20260507024003 | 16 | 183 | 6.4 | 11.3 | 0.00 | 0.00 | 0.00 | 85 | 1012.7 |
| 20260507023503 | 16 | 167 | 8.0 | 11.3 | 0.00 | 0.00 | 0.00 | 86 | 1012.7 |
| 20260507023218 | 17 | 170 | 8.0 | 11.3 | 0.00 | 0.00 | 0.00 | 86 | 1012.6 |
| 20260507022504 | 17 | 169 | 8.0 | 11.3 | 0.00 | 0.00 | 0.00 | 86 | 1012.4 |
| 20260507022003 | 17 | 148 | 8.0 | 11.3 | 0.00 | 0.00 | 0.00 | 87 | 1012.5 |
| 20260507021504 | 17 | 164 | 8.0 | 9.7 | 0.00 | 0.00 | 0.00 | 87 | 1012.4 |
| 20260507021004 | 17 | 304 | 6.4 | 9.7 | 0.00 | 0.00 | 0.00 | 87 | 1012.5 |
| 20260507020718 | 17 | 322 | 6.4 | 6.4 | 0.00 | 0.00 | 0.00 | 89 | 1012.6 |
| 20260507020003 | 17 | 72 | 8.0 | 11.3 | 0.00 | 0.00 | 0.00 | 89 | 1012.9 |
| 20260507015503 | 17 | 85 | 8.0 | 11.3 | 0.00 | 0.00 | 0.00 | 90 | 1012.9 |
| 20260507015217 | 17 | 81 | 6.4 | 11.3 | 0.00 | 0.00 | 0.00 | 90 | 1013.0 |
| 20260507014504 | 17 | 310 | 3.2 | 4.8 | 0.00 | 0.00 | 0.00 | 91 | 1013.0 |
| 20260507014003 | 17 | 267 | 1.6 | 4.8 | 0.00 | 0.00 | 0.00 | 92 | 1013.1 |
| 20260507013503 | 17 | 263 | 1.6 | 4.8 | 0.00 | 0.00 | 0.00 | 92 | 1012.8 |
| 20260507013003 | 17 | 270 | 3.2 | 4.8 | 0.00 | 0.00 | 0.00 | 92 | 1013.2 |
| 20260507012504 | 17 | 270 | 3.2 | 4.8 | 0.00 | 0.00 | 0.00 | 92 | 1013.3 |
| 20260507012003 | 17 | 270 | 3.2 | 3.2 | 0.00 | 0.00 | 0.00 | 92 | 1013.3 |
| 20260507011504 | 17 | 270 | 1.6 | 3.2 | 0.00 | 0.00 | 0.00 | 92 | 1013.1 |
| 20260507011003 | 17 | 270 | 1.6 | 1.6 | 0.00 | 0.00 | 0.00 | 92 | 1013.3 |
| 20260507010504 | 17 | 276 | 3.2 | 4.8 | 0.00 | 0.00 | 0.00 | 92 | 1013.3 |
| 20260507010004 | 17 | 287 | 3.2 | 4.8 | 0.00 | 0.00 | 0.00 | 93 | 1013.1 |
| 20260507005503 | 17 | 324 | 1.6 | 3.2 | 0.00 | 0.00 | 0.00 | 93 | 1013.4 |
| 20260507005004 | 17 | 358 | 1.6 | 1.6 | 0.00 | 0.00 | 0.00 | 93 | 1013.1 |
| 20260507004503 | 17 | 342 | 1.6 | 4.8 | 0.00 | 0.00 | 0.00 | 93 | 1013.2 |
| 20260507004003 | 17 | 324 | 3.2 | 4.8 | 0.00 | 0.00 | 0.00 | 92 | 1013.2 |
| 20260507003504 | 17 | 321 | 3.2 | 4.8 | 0.00 | 0.00 | 0.00 | 92 | 1013.5 |
| 20260507003003 | 17 | 318 | 3.2 | 4.8 | 0.00 | 0.00 | 0.00 | 92 | 1013.5 |
| 20260507002717 | 17 | 312 | 3.2 | 4.8 | 0.00 | 0.00 | 0.00 | 92 | 1013.7 |
| 20260507002003 | 17 | 312 | 4.8 | 6.4 | 0.00 | 0.00 | 0.00 | 92 | 1013.9 |
| 20260507001503 | 17 | 310 | 4.8 | 6.4 | 0.00 | 0.00 | 0.00 | 92 | 1013.8 |
| 20260507001004 | 17 | 311 | 3.2 | 4.8 | 0.00 | 0.00 | 0.00 | 92 | 1013.8 |
| 20260507000503 | 17 | 298 | 3.2 | 4.8 | 0.00 | 0.00 | 0.00 | 92 | 1014.1 |
| 20260507000005 | 17 | 305 | 4.8 | 6.4 | 0.00 | 0.00 | 0.00 | 92 | 1013.9 |
| 20260506235503 | 17 | 320 | 4.8 | 6.4 | 0.00 | 0.00 | 0.00 | 92 | 1014.1 |
| 20260506235003 | 17 | 319 | 4.8 | 6.4 | 0.00 | 0.00 | 0.00 | 92 | 1014.1 |
| 20260506234504 | 17 | 317 | 4.8 | 6.4 | 0.00 | 0.00 | 0.00 | 92 | 1013.9 |
| 20260506234003 | 17 | 321 | 6.4 | 8.0 | 0.00 | 0.00 | 0.00 | 92 | 1014.3 |
| 20260506233717 | 17 | 324 | 6.4 | 8.0 | 0.00 | 0.00 | 0.00 | 92 | 1014.1 |
| 20260506233215 | 17 | 320 | 6.4 | 8.0 | 0.00 | 0.00 | 0.00 | 91 | 1014.2 |
| 20260506232713 | 17 | 314 | 4.8 | 8.0 | 0.00 | 0.00 | 0.00 | 91 | 1014.2 |
| 20260506232003 | 17 | 307 | 4.8 | 6.4 | 0.00 | 0.00 | 0.00 | 91 | 1014.2 |
| 20260506231503 | 17 | 303 | 3.2 | 4.8 | 0.00 | 0.00 | 0.00 | 91 | 1014.4 |
| 20260506231217 | 17 | 305 | 3.2 | 4.8 | 0.00 | 0.00 | 0.00 | 91 | 1014.1 |
| 20260506230504 | 17 | 311 | 3.2 | 4.8 | 0.00 | 0.00 | 0.00 | 91 | 1014.2 |
| 20260506230218 | 17 | 314 | 3.2 | 4.8 | 0.00 | 0.00 | 0.00 | 91 | 1014.1 |
| 20260506225716 | 17 | 315 | 3.2 | 4.8 | 0.00 | 0.00 | 0.00 | 91 | 1013.9 |
| 20260506225003 | 17 | 303 | 3.2 | 6.4 | 0.00 | 0.00 | 0.00 | 91 | 1014.3 |
| 20260506224503 | 17 | 300 | 4.8 | 6.4 | 0.00 | 0.00 | 0.00 | 91 | 1014.5 |
| 20260506224003 | 17 | 301 | 4.8 | 6.4 | 0.00 | 0.00 | 0.00 | 91 | 1014.8 |
| 20260506223718 | 17 | 287 | 4.8 | 8.0 | 0.00 | 0.00 | 0.00 | 90 | 1014.6 |
| 20260506223004 | 17 | 288 | 6.4 | 8.0 | 0.00 | 0.00 | 0.00 | 90 | 1014.9 |
| 20260506222713 | 17 | 296 | 6.4 | 6.4 | 0.00 | 0.00 | 0.00 | 90 | 1014.9 |
| 20260506222216 | 17 | 312 | 4.8 | 6.4 | 0.00 | 0.00 | 0.00 | 90 | 1014.6 |
| 20260506221504 | 17 | 315 | 8.0 | 12.9 | 0.00 | 0.00 | 0.00 | 90 | 1014.1 |
| 20260506221003 | 17 | 315 | 11.3 | 12.9 | 0.00 | 0.00 | 0.00 | 90 | 1014.4 |
| 20260506220715 | 17 | 317 | 11.3 | 12.9 | 0.00 | 0.00 | 0.00 | 90 | 1014.4 |
| 20260506220004 | 17 | 334 | 8.0 | 12.9 | 0.00 | 0.00 | 0.00 | 90 | 1014.4 |
| 20260506215503 | 17 | 335 | 8.0 | 9.7 | 0.00 | 0.00 | 0.00 | 90 | 1014.3 |
| 20260506215003 | 17 | 322 | 8.0 | 9.7 | 0.00 | 0.00 | 0.00 | 90 | 1014.4 |
| 20260506214503 | 17 | 324 | 9.7 | 9.7 | 0.00 | 0.00 | 0.00 | 89 | 1014.4 |
| 20260506214004 | 17 | 342 | 9.7 | 16.1 | 0.00 | 0.00 | 0.00 | 87 | 1014.3 |
| 20260506213503 | 17 | 337 | 11.3 | 16.1 | 0.00 | 0.00 | 0.00 | 85 | 1014.5 |
| 20260506213003 | 17 | 321 | 9.7 | 14.5 | 0.00 | 0.00 | 0.00 | 82 | 1014.7 |
| 20260506212503 | 17 | 316 | 12.9 | 19.3 | 0.00 | 0.00 | 0.00 | 80 | 1014.7 |
| 20260506212003 | 18 | 317 | 14.5 | 19.3 | 0.00 | 0.00 | 0.00 | 75 | 1014.7 |
| 20260506211715 | 18 | 321 | 11.3 | 14.5 | 0.00 | 0.00 | 0.00 | 72 | 1014.7 |
| 20260506211003 | 18 | 325 | 8.0 | 11.3 | 0.00 | 0.00 | 0.00 | 64 | 1014.6 |
| 20260506210503 | 18 | 319 | 8.0 | 11.3 | 0.00 | 0.00 | 0.00 | 61 | 1014.9 |
| 20260506210003 | 18 | 317 | 8.0 | 11.3 | 0.00 | 0.00 | 0.00 | 60 | 1014.7 |
| 20260506205717 | 18 | 319 | 8.0 | 11.3 | 0.00 | 0.00 | 0.00 | 60 | 1014.8 |
| 20260506205005 | 18 | 333 | 6.4 | 6.4 | 0.00 | 0.00 | 0.00 | 61 | 1014.6 |
| 20260506204503 | 18 | 337 | 6.4 | 6.4 | 0.00 | 0.00 | 0.00 | 61 | 1014.6 |
| 20260506204216 | 18 | 332 | 4.8 | 6.4 | 0.00 | 0.00 | 0.00 | 60 | 1014.5 |
| 20260506203714 | 18 | 329 | 3.2 | 6.4 | 0.00 | 0.00 | 0.00 | 60 | 1014.4 |
| 20260506203217 | 18 | 8 | 1.6 | 3.2 | 0.00 | 0.00 | 0.00 | 58 | 1014.1 |
| 20260506202503 | 18 | 13 | 1.6 | 3.2 | 0.00 | 0.00 | 0.00 | 57 | 1014.1 |
| 20260506202003 | 18 | 20 | 3.2 | 3.2 | 0.00 | 0.00 | 0.00 | 57 | 1014.3 |
| 20260506201715 | 18 | 33 | 3.2 | 3.2 | 0.00 | 0.00 | 0.00 | 57 | 1014.0 |
| 20260506201004 | 18 | 159 | 3.2 | 3.2 | 0.00 | 0.00 | 0.00 | 57 | 1014.2 |
| 20260506200504 | 18 | 157 | 4.8 | 4.8 | 0.00 | 0.00 | 0.00 | 56 | 1014.2 |
| 20260506200004 | 18 | 82 | 4.8 | 8.0 | 0.00 | 0.00 | 0.00 | 56 | 1014.0 |
| 20260506195508 | 18 | 67 | 4.8 | 9.7 | 0.00 | 0.00 | 0.00 | 55 | 1013.9 |
| 20260506195003 | 18 | 66 | 4.8 | 9.7 | 0.00 | 0.00 | 0.00 | 54 | 1014.0 |
| 20260506194503 | 18 | 41 | 4.8 | 6.4 | 0.00 | 0.00 | 0.00 | 54 | 1013.9 |
| 20260506194216 | 18 | 119 | 6.4 | 8.0 | 0.00 | 0.00 | 0.00 | 54 | 1014.0 |
| 20260506193714 | 18 | 176 | 6.4 | 9.7 | 0.00 | 0.00 | 0.00 | 53 | 1013.8 |
| 20260506193004 | 18 | 39 | 6.4 | 9.7 | 0.00 | 0.00 | 0.00 | 54 | 1013.4 |
| 20260506192504 | 18 | 44 | 6.4 | 8.0 | 0.00 | 0.00 | 0.00 | 55 | 1013.4 |
| 20260506192003 | 18 | 114 | 6.4 | 9.7 | 0.00 | 0.00 | 0.00 | 54 | 1013.6 |
| 20260506191716 | 18 | 102 | 6.4 | 9.7 | 0.00 | 0.00 | 0.00 | 54 | 1013.5 |
| 20260506191214 | 19 | 21 | 6.4 | 9.7 | 0.00 | 0.00 | 0.00 | 54 | 1013.7 |
| 20260506190504 | 18 | 32 | 4.8 | 9.7 | 0.00 | 0.00 | 0.00 | 54 | 1013.5 |
| 20260506190004 | 18 | 54 | 3.2 | 6.4 | 0.00 | 0.00 | 0.00 | 55 | 1013.5 |
| 20260506185504 | 18 | 186 | 1.6 | 4.8 | 0.00 | 0.00 | 0.00 | 57 | 1013.7 |
| 20260506185004 | 18 | 199 | 3.2 | 4.8 | 0.00 | 0.00 | 0.00 | 57 | 1013.5 |
| 20260506184504 | 18 | 32 | 4.8 | 6.4 | 0.00 | 0.00 | 0.00 | 57 | 1013.5 |
| 20260506184003 | 18 | 55 | 4.8 | 6.4 | 0.00 | 0.00 | 0.00 | 60 | 1013.6 |
| 20260506183504 | 18 | 79 | 4.8 | 6.4 | 0.00 | 0.00 | 0.00 | 60 | 1013.4 |
| 20260506183004 | 18 | 82 | 4.8 | 6.4 | 0.00 | 0.00 | 0.00 | 61 | 1013.3 |
| 20260506182504 | 18 | 54 | 4.8 | 6.4 | 0.00 | 0.00 | 0.00 | 62 | 1013.5 |
| 20260506182003 | 18 | 115 | 4.8 | 6.4 | 0.00 | 0.00 | 0.00 | 63 | 1013.5 |
| 20260506181717 | 18 | 91 | 4.8 | 8.0 | 0.00 | 0.00 | 0.00 | 64 | 1013.4 |
| 20260506181004 | 18 | 52 | 4.8 | 8.0 | 0.00 | 0.00 | 0.00 | 66 | 1013.5 |
| 20260506180504 | 18 | 81 | 4.8 | 8.0 | 0.00 | 0.00 | 0.00 | 70 | 1013.6 |
| 20260506180216 | 18 | 88 | 4.8 | 8.0 | 0.00 | 0.00 | 0.00 | 70 | 1013.6 |
| 20260506175503 | 18 | 114 | 6.4 | 11.3 | 0.00 | 0.00 | 0.00 | 71 | 1013.6 |
| 20260506175004 | 18 | 111 | 9.7 | 11.3 | 0.00 | 0.00 | 0.00 | 71 | 1013.4 |
| 20260506174503 | 18 | 109 | 9.7 | 12.9 | 0.00 | 0.00 | 0.00 | 72 | 1013.5 |
| 20260506174003 | 18 | 360 | 9.7 | 12.9 | 0.00 | 0.00 | 0.00 | 72 | 1013.2 |
| 20260506173503 | 18 | 358 | 9.7 | 16.1 | 0.00 | 0.00 | 0.00 | 72 | 1013.3 |
| 20260506173004 | 18 | 157 | 11.3 | 16.1 | 0.00 | 0.00 | 0.00 | 72 | 1013.4 |
| 20260506172503 | 18 | 218 | 11.3 | 16.1 | 0.00 | 0.00 | 0.00 | 73 | 1013.6 |
| 20260506172214 | 18 | 250 | 9.7 | 16.1 | 0.00 | 0.00 | 0.00 | 73 | 1013.5 |
| 20260506171503 | 18 | 112 | 9.7 | 11.3 | 0.00 | 0.00 | 0.00 | 73 | 1013.4 |
| 20260506171004 | 18 | 88 | 8.0 | 12.9 | 0.00 | 0.00 | 0.00 | 72 | 1013.5 |
| 20260506170505 | 18 | 78 | 9.7 | 14.5 | 0.00 | 0.00 | 0.00 | 72 | 1013.3 |
| 20260506170004 | 18 | 82 | 11.3 | 14.5 | 0.00 | 0.00 | 0.00 | 72 | 1013.1 |
| 20260506165504 | 18 | 79 | 9.7 | 14.5 | 0.00 | 0.00 | 0.00 | 72 | 1013.3 |
| 20260506165004 | 18 | 53 | 8.0 | 11.3 | 0.00 | 0.00 | 0.00 | 72 | 1013.2 |
| 20260506164504 | 18 | 62 | 9.7 | 12.9 | 0.00 | 0.00 | 0.00 | 72 | 1013.1 |
| 20260506164004 | 18 | 78 | 8.0 | 12.9 | 0.00 | 0.00 | 0.00 | 72 | 1013.2 |
| 20260506163503 | 18 | 91 | 8.0 | 12.9 | 0.00 | 0.00 | 0.00 | 71 | 1013.3 |
| 20260506163004 | 18 | 99 | 9.7 | 14.5 | 0.00 | 0.00 | 0.00 | 71 | 1013.3 |